sensor_id;sensor_type;location;lat;lon;timestamp;P1;durP1;ratioP1;P2;durP2;ratioP2
59922;SDS011;45778;51.142;3.732;2023-05-10T00:01:07;0.30;;;0.30;;
59922;SDS011;45778;51.142;3.732;2023-05-10T00:03:32;0.38;;;0.38;;
59922;SDS011;45778;51.142;3.732;2023-05-10T00:05:58;8.32;;;1.40;;
59922;SDS011;45778;51.142;3.732;2023-05-10T00:08:24;0.60;;;0.52;;
59922;SDS011;45778;51.142;3.732;2023-05-10T00:10:50;2.50;;;2.33;;
59922;SDS011;45778;51.142;3.732;2023-05-10T00:13:15;0.10;;;0.10;;
59922;SDS011;45778;51.142;3.732;2023-05-10T00:15:41;0.45;;;0.45;;
59922;SDS011;45778;51.142;3.732;2023-05-10T00:18:07;0.90;;;0.88;;
59922;SDS011;45778;51.142;3.732;2023-05-10T00:20:32;0.05;;;0.05;;
59922;SDS011;45778;51.142;3.732;2023-05-10T00:22:58;0.68;;;0.68;;
59922;SDS011;45778;51.142;3.732;2023-05-10T00:25:24;0.85;;;0.85;;
59922;SDS011;45778;51.142;3.732;2023-05-10T00:27:50;0.73;;;0.73;;
59922;SDS011;45778;51.142;3.732;2023-05-10T00:30:15;0.35;;;0.35;;
59922;SDS011;45778;51.142;3.732;2023-05-10T00:32:41;0.57;;;0.50;;
59922;SDS011;45778;51.142;3.732;2023-05-10T00:35:08;1.55;;;1.45;;
59922;SDS011;45778;51.142;3.732;2023-05-10T00:37:34;1.08;;;0.98;;
59922;SDS011;45778;51.142;3.732;2023-05-10T00:39:59;2.55;;;1.48;;
59922;SDS011;45778;51.142;3.732;2023-05-10T00:42:25;3.88;;;1.60;;
59922;SDS011;45778;51.142;3.732;2023-05-10T00:44:50;1.75;;;1.65;;
59922;SDS011;45778;51.142;3.732;2023-05-10T00:47:16;1.27;;;1.08;;
59922;SDS011;45778;51.142;3.732;2023-05-10T00:49:42;0.10;;;0.10;;
59922;SDS011;45778;51.142;3.732;2023-05-10T00:52:08;1.35;;;1.35;;
59922;SDS011;45778;51.142;3.732;2023-05-10T00:54:34;2.15;;;2.05;;
59922;SDS011;45778;51.142;3.732;2023-05-10T00:57:01;6.55;;;2.45;;
59922;SDS011;45778;51.142;3.732;2023-05-10T00:59:26;1.85;;;1.75;;
59922;SDS011;45778;51.142;3.732;2023-05-10T01:01:53;1.85;;;1.70;;
59922;SDS011;45778;51.142;3.732;2023-05-10T01:04:19;1.15;;;1.05;;
59922;SDS011;45778;51.142;3.732;2023-05-10T01:06:46;3.20;;;2.28;;
59922;SDS011;45778;51.142;3.732;2023-05-10T01:09:12;1.33;;;1.17;;
59922;SDS011;45778;51.142;3.732;2023-05-10T01:11:38;5.43;;;3.40;;
59922;SDS011;45778;51.142;3.732;2023-05-10T01:14:05;1.98;;;1.85;;
59922;SDS011;45778;51.142;3.732;2023-05-10T01:16:35;2.70;;;1.45;;
59922;SDS011;45778;51.142;3.732;2023-05-10T01:19:06;0.90;;;0.90;;
59922;SDS011;45778;51.142;3.732;2023-05-10T01:21:57;4.22;;;2.55;;
59922;SDS011;45778;51.142;3.732;2023-05-10T01:38:11;0.63;;;0.63;;
59922;SDS011;45778;51.142;3.732;2023-05-10T01:41:04;0.93;;;0.93;;
59922;SDS011;45778;51.142;3.732;2023-05-10T01:43:45;0.82;;;0.82;;
59922;SDS011;45778;51.142;3.732;2023-05-10T01:46:24;0.10;;;0.10;;
59922;SDS011;45778;51.142;3.732;2023-05-10T01:48:57;0.82;;;0.63;;
59922;SDS011;45778;51.142;3.732;2023-05-10T01:51:26;0.32;;;0.30;;
59922;SDS011;45778;51.142;3.732;2023-05-10T01:54:00;0.73;;;0.73;;
59922;SDS011;45778;51.142;3.732;2023-05-10T01:56:28;0.50;;;0.50;;
59922;SDS011;45778;51.142;3.732;2023-05-10T01:58:56;0.60;;;0.60;;
59922;SDS011;45778;51.142;3.732;2023-05-10T02:01:25;0.30;;;0.30;;
59922;SDS011;45778;51.142;3.732;2023-05-10T02:03:52;0.63;;;0.63;;
59922;SDS011;45778;51.142;3.732;2023-05-10T02:06:20;4.30;;;1.15;;
59922;SDS011;45778;51.142;3.732;2023-05-10T02:08:46;1.05;;;0.98;;
59922;SDS011;45778;51.142;3.732;2023-05-10T02:11:14;0.90;;;0.90;;
59922;SDS011;45778;51.142;3.732;2023-05-10T02:13:40;1.20;;;1.17;;
59922;SDS011;45778;51.142;3.732;2023-05-10T02:16:07;2.22;;;1.17;;
59922;SDS011;45778;51.142;3.732;2023-05-10T02:18:33;0.45;;;0.45;;
59922;SDS011;45778;51.142;3.732;2023-05-10T02:21:01;2.65;;;2.40;;
59922;SDS011;45778;51.142;3.732;2023-05-10T02:23:27;1.67;;;0.93;;
59922;SDS011;45778;51.142;3.732;2023-05-10T02:25:54;1.10;;;1.08;;
59922;SDS011;45778;51.142;3.732;2023-05-10T02:28:21;0.00;;;0.00;;
59922;SDS011;45778;51.142;3.732;2023-05-10T02:30:49;1.85;;;1.08;;
59922;SDS011;45778;51.142;3.732;2023-05-10T02:33:16;0.63;;;0.63;;
59922;SDS011;45778;51.142;3.732;2023-05-10T02:35:42;2.95;;;2.75;;
59922;SDS011;45778;51.142;3.732;2023-05-10T02:38:08;1.95;;;0.60;;
59922;SDS011;45778;51.142;3.732;2023-05-10T02:40:36;0.25;;;0.25;;
59922;SDS011;45778;51.142;3.732;2023-05-10T02:43:03;0.30;;;0.30;;
59922;SDS011;45778;51.142;3.732;2023-05-10T02:45:31;0.20;;;0.20;;
59922;SDS011;45778;51.142;3.732;2023-05-10T02:48:00;1.98;;;1.38;;
59922;SDS011;45778;51.142;3.732;2023-05-10T02:50:27;8.32;;;2.63;;
59922;SDS011;45778;51.142;3.732;2023-05-10T02:52:56;0.85;;;0.85;;
59922;SDS011;45778;51.142;3.732;2023-05-10T02:55:26;0.30;;;0.30;;
59922;SDS011;45778;51.142;3.732;2023-05-10T02:58:01;0.13;;;0.13;;
59922;SDS011;45778;51.142;3.732;2023-05-10T03:00:28;1.02;;;0.93;;
59922;SDS011;45778;51.142;3.732;2023-05-10T03:02:54;1.30;;;1.20;;
59922;SDS011;45778;51.142;3.732;2023-05-10T03:05:20;0.00;;;0.00;;
59922;SDS011;45778;51.142;3.732;2023-05-10T03:07:46;2.95;;;1.73;;
59922;SDS011;45778;51.142;3.732;2023-05-10T03:10:12;18.88;;;3.15;;
59922;SDS011;45778;51.142;3.732;2023-05-10T03:12:46;4.72;;;3.13;;
59922;SDS011;45778;51.142;3.732;2023-05-10T03:15:25;0.68;;;0.68;;
59922;SDS011;45778;51.142;3.732;2023-05-10T03:18:15;1.48;;;1.40;;
59922;SDS011;45778;51.142;3.732;2023-05-10T03:20:47;0.98;;;0.98;;
59922;SDS011;45778;51.142;3.732;2023-05-10T03:23:22;0.25;;;0.25;;
59922;SDS011;45778;51.142;3.732;2023-05-10T03:25:55;1.65;;;1.27;;
59922;SDS011;45778;51.142;3.732;2023-05-10T03:28:21;1.52;;;0.98;;
59922;SDS011;45778;51.142;3.732;2023-05-10T03:30:49;0.00;;;0.00;;
59922;SDS011;45778;51.142;3.732;2023-05-10T03:33:17;2.28;;;1.38;;
59922;SDS011;45778;51.142;3.732;2023-05-10T03:35:43;1.33;;;1.23;;
59922;SDS011;45778;51.142;3.732;2023-05-10T03:38:10;1.40;;;1.27;;
59922;SDS011;45778;51.142;3.732;2023-05-10T03:40:36;0.60;;;0.57;;
59922;SDS011;45778;51.142;3.732;2023-05-10T03:43:02;0.40;;;0.40;;
59922;SDS011;45778;51.142;3.732;2023-05-10T03:45:28;1.67;;;1.55;;
59922;SDS011;45778;51.142;3.732;2023-05-10T03:47:53;0.93;;;0.93;;
59922;SDS011;45778;51.142;3.732;2023-05-10T03:50:20;0.30;;;0.30;;
59922;SDS011;45778;51.142;3.732;2023-05-10T03:52:46;0.82;;;0.82;;
59922;SDS011;45778;51.142;3.732;2023-05-10T03:55:12;1.55;;;1.45;;
59922;SDS011;45778;51.142;3.732;2023-05-10T03:57:37;4.65;;;2.25;;
59922;SDS011;45778;51.142;3.732;2023-05-10T04:00:03;0.88;;;0.85;;
59922;SDS011;45778;51.142;3.732;2023-05-10T04:02:29;2.28;;;2.17;;
59922;SDS011;45778;51.142;3.732;2023-05-10T04:04:55;0.98;;;0.98;;
59922;SDS011;45778;51.142;3.732;2023-05-10T04:07:21;32.65;;;18.42;;
59922;SDS011;45778;51.142;3.732;2023-05-10T04:09:47;33.53;;;18.50;;
59922;SDS011;45778;51.142;3.732;2023-05-10T04:12:13;31.48;;;17.33;;
59922;SDS011;45778;51.142;3.732;2023-05-10T04:14:38;39.30;;;18.25;;
59922;SDS011;45778;51.142;3.732;2023-05-10T04:17:04;34.50;;;18.60;;
59922;SDS011;45778;51.142;3.732;2023-05-10T04:19:30;33.88;;;17.90;;
59922;SDS011;45778;51.142;3.732;2023-05-10T04:21:56;31.13;;;17.80;;
59922;SDS011;45778;51.142;3.732;2023-05-10T04:24:23;36.15;;;19.23;;
59922;SDS011;45778;51.142;3.732;2023-05-10T04:26:49;33.40;;;18.65;;
59922;SDS011;45778;51.142;3.732;2023-05-10T04:29:14;37.78;;;18.77;;
59922;SDS011;45778;51.142;3.732;2023-05-10T04:31:40;44.20;;;18.90;;
59922;SDS011;45778;51.142;3.732;2023-05-10T04:34:06;30.90;;;18.05;;
59922;SDS011;45778;51.142;3.732;2023-05-10T04:36:31;32.78;;;18.70;;
59922;SDS011;45778;51.142;3.732;2023-05-10T04:39:01;33.97;;;17.92;;
59922;SDS011;45778;51.142;3.732;2023-05-10T04:41:28;36.60;;;19.48;;
59922;SDS011;45778;51.142;3.732;2023-05-10T04:43:54;34.90;;;18.98;;
59922;SDS011;45778;51.142;3.732;2023-05-10T04:46:20;31.67;;;18.13;;
59922;SDS011;45778;51.142;3.732;2023-05-10T04:48:45;34.60;;;17.75;;
59922;SDS011;45778;51.142;3.732;2023-05-10T04:51:11;41.25;;;20.00;;
59922;SDS011;45778;51.142;3.732;2023-05-10T04:53:37;32.30;;;19.40;;
59922;SDS011;45778;51.142;3.732;2023-05-10T04:56:03;33.72;;;18.48;;
59922;SDS011;45778;51.142;3.732;2023-05-10T04:58:28;31.65;;;19.15;;
59922;SDS011;45778;51.142;3.732;2023-05-10T05:00:54;32.42;;;19.42;;
59922;SDS011;45778;51.142;3.732;2023-05-10T05:03:20;37.40;;;18.98;;
59922;SDS011;45778;51.142;3.732;2023-05-10T05:05:45;31.63;;;19.25;;
59922;SDS011;45778;51.142;3.732;2023-05-10T05:08:11;35.22;;;20.27;;
59922;SDS011;45778;51.142;3.732;2023-05-10T05:10:37;30.88;;;20.00;;
59922;SDS011;45778;51.142;3.732;2023-05-10T05:13:03;32.70;;;19.25;;
59922;SDS011;45778;51.142;3.732;2023-05-10T05:15:28;30.70;;;17.85;;
59922;SDS011;45778;51.142;3.732;2023-05-10T05:17:55;28.67;;;18.95;;
59922;SDS011;45778;51.142;3.732;2023-05-10T05:20:21;33.50;;;19.33;;
59922;SDS011;45778;51.142;3.732;2023-05-10T05:22:47;34.17;;;18.23;;
59922;SDS011;45778;51.142;3.732;2023-05-10T05:25:12;33.92;;;19.27;;
59922;SDS011;45778;51.142;3.732;2023-05-10T05:27:38;28.38;;;17.23;;
59922;SDS011;45778;51.142;3.732;2023-05-10T05:30:04;30.73;;;17.63;;
59922;SDS011;45778;51.142;3.732;2023-05-10T05:32:31;31.95;;;17.02;;
59922;SDS011;45778;51.142;3.732;2023-05-10T05:34:57;30.65;;;18.48;;
59922;SDS011;45778;51.142;3.732;2023-05-10T05:37:22;35.97;;;17.35;;
59922;SDS011;45778;51.142;3.732;2023-05-10T05:39:49;23.95;;;16.58;;
59922;SDS011;45778;51.142;3.732;2023-05-10T05:42:15;22.40;;;14.40;;
59922;SDS011;45778;51.142;3.732;2023-05-10T05:44:42;30.02;;;16.08;;
59922;SDS011;45778;51.142;3.732;2023-05-10T05:47:08;23.23;;;14.52;;
59922;SDS011;45778;51.142;3.732;2023-05-10T05:49:34;20.10;;;13.40;;
59922;SDS011;45778;51.142;3.732;2023-05-10T05:52:00;22.52;;;13.80;;
59922;SDS011;45778;51.142;3.732;2023-05-10T05:54:27;23.10;;;14.00;;
59922;SDS011;45778;51.142;3.732;2023-05-10T05:56:58;22.05;;;14.10;;
59922;SDS011;45778;51.142;3.732;2023-05-10T05:59:25;18.80;;;13.77;;
59922;SDS011;45778;51.142;3.732;2023-05-10T06:01:51;19.17;;;12.73;;
59922;SDS011;45778;51.142;3.732;2023-05-10T06:04:17;17.80;;;12.10;;
59922;SDS011;45778;51.142;3.732;2023-05-10T06:06:43;19.52;;;12.27;;
59922;SDS011;45778;51.142;3.732;2023-05-10T06:09:09;19.67;;;12.80;;
59922;SDS011;45778;51.142;3.732;2023-05-10T06:11:35;17.90;;;12.85;;
59922;SDS011;45778;51.142;3.732;2023-05-10T06:14:01;18.85;;;12.43;;
59922;SDS011;45778;51.142;3.732;2023-05-10T06:16:28;18.05;;;11.80;;
59922;SDS011;45778;51.142;3.732;2023-05-10T06:18:54;16.13;;;10.77;;
59922;SDS011;45778;51.142;3.732;2023-05-10T06:21:20;15.98;;;10.20;;
59922;SDS011;45778;51.142;3.732;2023-05-10T06:23:46;15.18;;;9.50;;
59922;SDS011;45778;51.142;3.732;2023-05-10T06:26:11;15.48;;;9.32;;
59922;SDS011;45778;51.142;3.732;2023-05-10T06:28:38;13.35;;;7.97;;
59922;SDS011;45778;51.142;3.732;2023-05-10T06:31:04;14.27;;;8.20;;
59922;SDS011;45778;51.142;3.732;2023-05-10T06:33:30;11.68;;;8.95;;
59922;SDS011;45778;51.142;3.732;2023-05-10T06:35:56;12.32;;;7.68;;
59922;SDS011;45778;51.142;3.732;2023-05-10T06:38:22;11.77;;;7.85;;
59922;SDS011;45778;51.142;3.732;2023-05-10T06:40:48;11.05;;;7.25;;
59922;SDS011;45778;51.142;3.732;2023-05-10T06:43:13;12.43;;;7.70;;
59922;SDS011;45778;51.142;3.732;2023-05-10T06:45:39;10.10;;;6.70;;
59922;SDS011;45778;51.142;3.732;2023-05-10T06:48:06;10.68;;;7.20;;
59922;SDS011;45778;51.142;3.732;2023-05-10T06:50:32;9.80;;;6.90;;
59922;SDS011;45778;51.142;3.732;2023-05-10T06:52:58;10.30;;;7.72;;
59922;SDS011;45778;51.142;3.732;2023-05-10T06:55:24;10.13;;;7.75;;
59922;SDS011;45778;51.142;3.732;2023-05-10T06:57:49;12.00;;;7.70;;
59922;SDS011;45778;51.142;3.732;2023-05-10T07:00:15;10.40;;;7.55;;
59922;SDS011;45778;51.142;3.732;2023-05-10T07:02:42;12.70;;;8.57;;
59922;SDS011;45778;51.142;3.732;2023-05-10T07:05:08;10.18;;;7.03;;
59922;SDS011;45778;51.142;3.732;2023-05-10T07:07:34;12.82;;;7.57;;
59922;SDS011;45778;51.142;3.732;2023-05-10T07:10:00;11.55;;;8.40;;
59922;SDS011;45778;51.142;3.732;2023-05-10T07:12:26;9.90;;;7.80;;
59922;SDS011;45778;51.142;3.732;2023-05-10T07:14:51;11.77;;;9.05;;
59922;SDS011;45778;51.142;3.732;2023-05-10T07:17:17;7.72;;;6.28;;
59922;SDS011;45778;51.142;3.732;2023-05-10T07:19:43;8.75;;;7.18;;
59922;SDS011;45778;51.142;3.732;2023-05-10T07:22:08;7.90;;;5.20;;
59922;SDS011;45778;51.142;3.732;2023-05-10T07:24:34;8.13;;;5.18;;
59922;SDS011;45778;51.142;3.732;2023-05-10T07:27:00;8.30;;;6.18;;
59922;SDS011;45778;51.142;3.732;2023-05-10T07:29:26;8.30;;;6.50;;
59922;SDS011;45778;51.142;3.732;2023-05-10T07:31:51;9.50;;;6.25;;
59922;SDS011;45778;51.142;3.732;2023-05-10T07:34:18;11.40;;;7.93;;
59922;SDS011;45778;51.142;3.732;2023-05-10T07:36:43;11.05;;;7.60;;
59922;SDS011;45778;51.142;3.732;2023-05-10T07:39:09;8.95;;;6.78;;
59922;SDS011;45778;51.142;3.732;2023-05-10T07:41:35;8.23;;;4.85;;
59922;SDS011;45778;51.142;3.732;2023-05-10T07:44:02;6.93;;;4.95;;
59922;SDS011;45778;51.142;3.732;2023-05-10T07:46:28;8.73;;;6.05;;
59922;SDS011;45778;51.142;3.732;2023-05-10T07:48:54;10.27;;;6.80;;
59922;SDS011;45778;51.142;3.732;2023-05-10T07:51:20;8.75;;;6.78;;
59922;SDS011;45778;51.142;3.732;2023-05-10T07:53:46;9.35;;;6.82;;
59922;SDS011;45778;51.142;3.732;2023-05-10T07:56:22;10.73;;;7.45;;
59922;SDS011;45778;51.142;3.732;2023-05-10T07:58:57;10.57;;;7.72;;
59922;SDS011;45778;51.142;3.732;2023-05-10T08:01:24;12.43;;;7.28;;
59922;SDS011;45778;51.142;3.732;2023-05-10T08:03:50;9.50;;;6.80;;
59922;SDS011;45778;51.142;3.732;2023-05-10T08:06:19;10.63;;;7.30;;
59922;SDS011;45778;51.142;3.732;2023-05-10T08:08:46;9.50;;;7.25;;
59922;SDS011;45778;51.142;3.732;2023-05-10T08:11:17;9.75;;;7.63;;
59922;SDS011;45778;51.142;3.732;2023-05-10T08:13:43;10.48;;;7.25;;
59922;SDS011;45778;51.142;3.732;2023-05-10T08:16:13;9.75;;;7.60;;
59922;SDS011;45778;51.142;3.732;2023-05-10T08:18:38;8.45;;;6.00;;
59922;SDS011;45778;51.142;3.732;2023-05-10T08:21:04;8.32;;;6.22;;
59922;SDS011;45778;51.142;3.732;2023-05-10T08:23:30;7.93;;;5.68;;
59922;SDS011;45778;51.142;3.732;2023-05-10T08:25:56;8.35;;;6.32;;
59922;SDS011;45778;51.142;3.732;2023-05-10T08:28:22;8.07;;;6.72;;
59922;SDS011;45778;51.142;3.732;2023-05-10T08:30:47;9.98;;;6.40;;
59922;SDS011;45778;51.142;3.732;2023-05-10T08:33:14;9.13;;;5.75;;
59922;SDS011;45778;51.142;3.732;2023-05-10T08:35:40;8.68;;;6.63;;
59922;SDS011;45778;51.142;3.732;2023-05-10T08:38:06;9.80;;;6.63;;
59922;SDS011;45778;51.142;3.732;2023-05-10T08:40:32;9.82;;;6.63;;
59922;SDS011;45778;51.142;3.732;2023-05-10T08:43:09;11.30;;;7.15;;
59922;SDS011;45778;51.142;3.732;2023-05-10T08:45:37;9.52;;;5.93;;
59922;SDS011;45778;51.142;3.732;2023-05-10T08:48:07;9.00;;;5.25;;
59922;SDS011;45778;51.142;3.732;2023-05-10T08:50:38;8.27;;;5.72;;
59922;SDS011;45778;51.142;3.732;2023-05-10T08:53:06;8.07;;;5.82;;
59922;SDS011;45778;51.142;3.732;2023-05-10T08:55:35;7.25;;;5.53;;
59922;SDS011;45778;51.142;3.732;2023-05-10T08:58:03;7.35;;;5.07;;
59922;SDS011;45778;51.142;3.732;2023-05-10T09:00:29;8.40;;;6.00;;
59922;SDS011;45778;51.142;3.732;2023-05-10T09:02:57;6.32;;;5.05;;
59922;SDS011;45778;51.142;3.732;2023-05-10T09:05:23;9.20;;;6.28;;
59922;SDS011;45778;51.142;3.732;2023-05-10T09:07:49;7.70;;;6.75;;
59922;SDS011;45778;51.142;3.732;2023-05-10T09:10:14;9.43;;;5.90;;
59922;SDS011;45778;51.142;3.732;2023-05-10T09:12:40;11.52;;;8.60;;
59922;SDS011;45778;51.142;3.732;2023-05-10T09:15:07;9.02;;;6.38;;
59922;SDS011;45778;51.142;3.732;2023-05-10T09:17:34;8.73;;;7.05;;
59922;SDS011;45778;51.142;3.732;2023-05-10T09:20:02;9.75;;;7.40;;
59922;SDS011;45778;51.142;3.732;2023-05-10T09:22:32;11.15;;;8.20;;
59922;SDS011;45778;51.142;3.732;2023-05-10T09:25:04;13.90;;;10.02;;
59922;SDS011;45778;51.142;3.732;2023-05-10T09:27:34;17.67;;;12.50;;
59922;SDS011;45778;51.142;3.732;2023-05-10T09:30:01;16.20;;;10.23;;
59922;SDS011;45778;51.142;3.732;2023-05-10T09:32:37;16.83;;;12.30;;
59922;SDS011;45778;51.142;3.732;2023-05-10T09:35:07;20.83;;;13.05;;
59922;SDS011;45778;51.142;3.732;2023-05-10T09:37:34;16.63;;;12.15;;
59922;SDS011;45778;51.142;3.732;2023-05-10T09:40:00;18.75;;;13.20;;
59922;SDS011;45778;51.142;3.732;2023-05-10T09:42:28;17.83;;;11.95;;
59922;SDS011;45778;51.142;3.732;2023-05-10T09:44:54;17.60;;;12.45;;
59922;SDS011;45778;51.142;3.732;2023-05-10T09:47:29;21.00;;;12.57;;
59922;SDS011;45778;51.142;3.732;2023-05-10T09:50:03;16.52;;;12.05;;
59922;SDS011;45778;51.142;3.732;2023-05-10T09:53:14;17.08;;;11.20;;
59922;SDS011;45778;51.142;3.732;2023-05-10T09:55:46;15.90;;;10.98;;
59922;SDS011;45778;51.142;3.732;2023-05-10T09:58:18;17.15;;;11.38;;
59922;SDS011;45778;51.142;3.732;2023-05-10T10:00:47;14.38;;;10.77;;
59922;SDS011;45778;51.142;3.732;2023-05-10T10:03:22;13.77;;;9.77;;
59922;SDS011;45778;51.142;3.732;2023-05-10T10:05:52;12.77;;;9.55;;
59922;SDS011;45778;51.142;3.732;2023-05-10T10:08:21;14.83;;;10.13;;
59922;SDS011;45778;51.142;3.732;2023-05-10T10:10:50;13.65;;;10.55;;
59922;SDS011;45778;51.142;3.732;2023-05-10T10:13:16;14.45;;;9.30;;
59922;SDS011;45778;51.142;3.732;2023-05-10T10:15:42;13.80;;;9.88;;
59922;SDS011;45778;51.142;3.732;2023-05-10T10:18:12;13.13;;;9.27;;
59922;SDS011;45778;51.142;3.732;2023-05-10T10:20:39;16.42;;;11.50;;
59922;SDS011;45778;51.142;3.732;2023-05-10T10:23:14;17.80;;;12.50;;
59922;SDS011;45778;51.142;3.732;2023-05-10T10:25:39;15.10;;;11.02;;
59922;SDS011;45778;51.142;3.732;2023-05-10T10:30:50;17.98;;;11.30;;
59922;SDS011;45778;51.142;3.732;2023-05-10T10:36:00;16.08;;;10.10;;
59922;SDS011;45778;51.142;3.732;2023-05-10T10:38:36;14.60;;;10.20;;
59922;SDS011;45778;51.142;3.732;2023-05-10T10:41:28;14.77;;;10.38;;
59922;SDS011;45778;51.142;3.732;2023-05-10T10:49:45;16.77;;;11.38;;
59922;SDS011;45778;51.142;3.732;2023-05-10T10:55:01;14.57;;;10.68;;
59922;SDS011;45778;51.142;3.732;2023-05-10T11:02:45;16.45;;;11.13;;
59922;SDS011;45778;51.142;3.732;2023-05-10T11:07:55;20.45;;;12.02;;
59922;SDS011;45778;51.142;3.732;2023-05-10T11:10:22;18.80;;;11.95;;
59922;SDS011;45778;51.142;3.732;2023-05-10T11:15:33;19.65;;;14.15;;
59922;SDS011;45778;51.142;3.732;2023-05-10T11:18:00;23.70;;;14.52;;
59922;SDS011;45778;51.142;3.732;2023-05-10T11:26:12;23.48;;;16.00;;
59922;SDS011;45778;51.142;3.732;2023-05-10T11:28:41;24.65;;;16.70;;
59922;SDS011;45778;51.142;3.732;2023-05-10T11:31:12;25.30;;;16.77;;
59922;SDS011;45778;51.142;3.732;2023-05-10T11:33:50;26.30;;;17.38;;
59922;SDS011;45778;51.142;3.732;2023-05-10T11:36:18;26.38;;;17.42;;
59922;SDS011;45778;51.142;3.732;2023-05-10T11:38:45;27.98;;;17.27;;
59922;SDS011;45778;51.142;3.732;2023-05-10T11:41:12;26.38;;;15.73;;
59922;SDS011;45778;51.142;3.732;2023-05-10T11:43:38;22.58;;;17.27;;
59922;SDS011;45778;51.142;3.732;2023-05-10T11:46:05;28.50;;;18.70;;
59922;SDS011;45778;51.142;3.732;2023-05-10T11:48:32;26.77;;;16.58;;
59922;SDS011;45778;51.142;3.732;2023-05-10T11:50:58;24.52;;;18.50;;
59922;SDS011;45778;51.142;3.732;2023-05-10T11:53:26;27.67;;;19.05;;
59922;SDS011;45778;51.142;3.732;2023-05-10T11:55:54;27.48;;;18.75;;
59922;SDS011;45778;51.142;3.732;2023-05-10T11:58:20;27.77;;;18.20;;
59922;SDS011;45778;51.142;3.732;2023-05-10T12:00:47;24.85;;;16.98;;
59922;SDS011;45778;51.142;3.732;2023-05-10T12:03:13;24.27;;;16.65;;
59922;SDS011;45778;51.142;3.732;2023-05-10T12:05:39;23.23;;;15.63;;
59922;SDS011;45778;51.142;3.732;2023-05-10T12:08:13;18.23;;;14.27;;
59922;SDS011;45778;51.142;3.732;2023-05-10T12:10:40;19.38;;;15.60;;
59922;SDS011;45778;51.142;3.732;2023-05-10T12:13:10;20.33;;;15.25;;
59922;SDS011;45778;51.142;3.732;2023-05-10T12:15:38;21.38;;;15.93;;
59922;SDS011;45778;51.142;3.732;2023-05-10T12:18:03;24.38;;;16.95;;
59922;SDS011;45778;51.142;3.732;2023-05-10T12:20:30;21.38;;;15.63;;
59922;SDS011;45778;51.142;3.732;2023-05-10T12:22:56;23.13;;;16.80;;
59922;SDS011;45778;51.142;3.732;2023-05-10T12:25:24;21.88;;;14.38;;
59922;SDS011;45778;51.142;3.732;2023-05-10T12:27:56;20.85;;;14.75;;
59922;SDS011;45778;51.142;3.732;2023-05-10T12:30:23;21.63;;;13.55;;
59922;SDS011;45778;51.142;3.732;2023-05-10T12:32:50;19.60;;;12.10;;
59922;SDS011;45778;51.142;3.732;2023-05-10T12:35:17;20.23;;;13.20;;
59922;SDS011;45778;51.142;3.732;2023-05-10T12:37:47;19.05;;;14.55;;
59922;SDS011;45778;51.142;3.732;2023-05-10T12:40:13;24.15;;;14.48;;
59922;SDS011;45778;51.142;3.732;2023-05-10T12:42:39;19.50;;;14.40;;
59922;SDS011;45778;51.142;3.732;2023-05-10T12:45:05;19.50;;;14.52;;
59922;SDS011;45778;51.142;3.732;2023-05-10T12:47:32;24.67;;;15.70;;
59922;SDS011;45778;51.142;3.732;2023-05-10T12:49:59;23.27;;;15.18;;
59922;SDS011;45778;51.142;3.732;2023-05-10T12:52:28;22.13;;;13.95;;
59922;SDS011;45778;51.142;3.732;2023-05-10T12:54:54;21.40;;;13.27;;
59922;SDS011;45778;51.142;3.732;2023-05-10T12:57:20;22.70;;;15.30;;
59922;SDS011;45778;51.142;3.732;2023-05-10T12:59:46;18.38;;;12.93;;
59922;SDS011;45778;51.142;3.732;2023-05-10T13:02:11;21.48;;;14.18;;
59922;SDS011;45778;51.142;3.732;2023-05-10T13:04:37;23.50;;;14.18;;
59922;SDS011;45778;51.142;3.732;2023-05-10T13:07:07;26.65;;;14.63;;
59922;SDS011;45778;51.142;3.732;2023-05-10T13:09:34;22.00;;;13.15;;
59922;SDS011;45778;51.142;3.732;2023-05-10T13:12:00;19.15;;;13.88;;
59922;SDS011;45778;51.142;3.732;2023-05-10T13:14:25;21.50;;;14.20;;
59922;SDS011;45778;51.142;3.732;2023-05-10T13:16:51;27.35;;;16.25;;
59922;SDS011;45778;51.142;3.732;2023-05-10T13:19:17;30.95;;;18.20;;
59922;SDS011;45778;51.142;3.732;2023-05-10T13:21:43;24.73;;;16.60;;
59922;SDS011;45778;51.142;3.732;2023-05-10T13:24:12;27.67;;;18.13;;
59922;SDS011;45778;51.142;3.732;2023-05-10T13:26:42;25.52;;;17.98;;
59922;SDS011;45778;51.142;3.732;2023-05-10T13:29:07;31.10;;;18.73;;
59922;SDS011;45778;51.142;3.732;2023-05-10T13:31:34;32.92;;;19.33;;
59922;SDS011;45778;51.142;3.732;2023-05-10T13:34:00;29.23;;;18.80;;
59922;SDS011;45778;51.142;3.732;2023-05-10T13:36:27;25.52;;;16.33;;
59922;SDS011;45778;51.142;3.732;2023-05-10T13:38:53;29.00;;;18.10;;
59922;SDS011;45778;51.142;3.732;2023-05-10T13:41:18;27.27;;;17.65;;
59922;SDS011;45778;51.142;3.732;2023-05-10T13:43:44;22.67;;;13.77;;
59922;SDS011;45778;51.142;3.732;2023-05-10T13:46:10;24.58;;;14.43;;
59922;SDS011;45778;51.142;3.732;2023-05-10T13:48:35;20.63;;;13.68;;
59922;SDS011;45778;51.142;3.732;2023-05-10T13:51:02;22.88;;;13.30;;
59922;SDS011;45778;51.142;3.732;2023-05-10T13:53:27;21.23;;;12.60;;
59922;SDS011;45778;51.142;3.732;2023-05-10T13:55:53;23.65;;;12.68;;
59922;SDS011;45778;51.142;3.732;2023-05-10T13:58:19;19.98;;;12.90;;
59922;SDS011;45778;51.142;3.732;2023-05-10T14:00:45;26.73;;;12.30;;
59922;SDS011;45778;51.142;3.732;2023-05-10T14:03:10;20.35;;;11.25;;
59922;SDS011;45778;51.142;3.732;2023-05-10T14:05:36;18.45;;;10.57;;
59922;SDS011;45778;51.142;3.732;2023-05-10T14:08:02;21.25;;;11.82;;
59922;SDS011;45778;51.142;3.732;2023-05-10T14:10:28;18.00;;;10.07;;
59922;SDS011;45778;51.142;3.732;2023-05-10T14:12:55;16.85;;;10.07;;
59922;SDS011;45778;51.142;3.732;2023-05-10T14:15:20;19.10;;;11.02;;
59922;SDS011;45778;51.142;3.732;2023-05-10T14:17:46;20.33;;;10.00;;
59922;SDS011;45778;51.142;3.732;2023-05-10T14:20:12;14.82;;;9.55;;
59922;SDS011;45778;51.142;3.732;2023-05-10T14:22:38;17.70;;;8.63;;
59922;SDS011;45778;51.142;3.732;2023-05-10T14:25:04;19.40;;;9.45;;
59922;SDS011;45778;51.142;3.732;2023-05-10T14:27:29;16.83;;;8.95;;
59922;SDS011;45778;51.142;3.732;2023-05-10T14:29:55;14.93;;;9.57;;
59922;SDS011;45778;51.142;3.732;2023-05-10T14:32:21;14.90;;;8.93;;
59922;SDS011;45778;51.142;3.732;2023-05-10T14:34:46;18.10;;;9.52;;
59922;SDS011;45778;51.142;3.732;2023-05-10T14:37:13;16.55;;;8.45;;
59922;SDS011;45778;51.142;3.732;2023-05-10T14:39:40;13.65;;;8.85;;
59922;SDS011;45778;51.142;3.732;2023-05-10T14:42:07;15.52;;;9.02;;
59922;SDS011;45778;51.142;3.732;2023-05-10T14:44:33;19.20;;;8.73;;
59922;SDS011;45778;51.142;3.732;2023-05-10T14:46:59;13.82;;;8.07;;
59922;SDS011;45778;51.142;3.732;2023-05-10T14:49:24;15.00;;;8.43;;
59922;SDS011;45778;51.142;3.732;2023-05-10T14:51:51;14.55;;;7.80;;
59922;SDS011;45778;51.142;3.732;2023-05-10T14:54:16;16.13;;;8.23;;
59922;SDS011;45778;51.142;3.732;2023-05-10T14:56:42;16.75;;;8.52;;
59922;SDS011;45778;51.142;3.732;2023-05-10T14:59:08;14.18;;;8.82;;
59922;SDS011;45778;51.142;3.732;2023-05-10T15:01:33;18.17;;;8.68;;
59922;SDS011;45778;51.142;3.732;2023-05-10T15:04:02;14.20;;;7.85;;
59922;SDS011;45778;51.142;3.732;2023-05-10T15:06:31;14.25;;;8.45;;
59922;SDS011;45778;51.142;3.732;2023-05-10T15:08:58;15.68;;;8.90;;
59922;SDS011;45778;51.142;3.732;2023-05-10T15:11:24;16.40;;;8.20;;
59922;SDS011;45778;51.142;3.732;2023-05-10T15:13:50;16.67;;;7.60;;
59922;SDS011;45778;51.142;3.732;2023-05-10T15:16:16;17.38;;;8.82;;
59922;SDS011;45778;51.142;3.732;2023-05-10T15:18:42;14.35;;;7.97;;